Time;durP1;ratioP1;P1;durP2;ratioP2;P2;SDS_P1;SDS_P2;PMS_P1;PMS_P2;Temp;Humidity;BMP_temperature;BMP_pressure;BME280_temperature;BME280_humidity;BME280_pressure;Samples;Min_cycle;Max_cycle;Signal;HPM_P1;HPM_P2
2022/06/08 00:00:30;;;;;;;5.43;3.20;;;10.00;99.90;;;;;;5076187;28;20063;-69
2022/06/08 00:03:19;;;;;;;6.10;2.58;;;10.10;99.90;;;;;;5075840;28;20429;-69
2022/06/08 00:05:45;;;;;;;8.13;2.60;;;10.00;99.90;;;;;;5076114;28;20052;-69
2022/06/08 00:08:10;;;;;;;3.63;2.10;;;10.00;99.90;;;;;;5075597;28;20044;-69
2022/06/08 00:10:36;;;;;;;4.75;2.75;;;9.90;99.90;;;;;;5058446;28;20072;-69
2022/06/08 00:13:03;;;;;;;3.53;2.20;;;9.90;99.90;;;;;;5076028;28;20411;-69
2022/06/08 00:15:29;;;;;;;4.30;2.50;;;9.90;99.90;;;;;;5058075;28;20040;-69
2022/06/08 00:17:56;;;;;;;4.88;2.88;;;9.90;99.90;;;;;;5056733;28;20068;-69
2022/06/08 00:20:22;;;;;;;4.22;2.42;;;9.90;99.90;;;;;;5038306;28;20052;-71
2022/06/08 00:22:48;;;;;;;7.25;2.42;;;9.90;99.90;;;;;;5055684;28;20045;-69
2022/06/08 00:25:14;;;;;;;7.60;3.42;;;9.90;99.90;;;;;;5055527;28;20191;-68
2022/06/08 00:27:40;;;;;;;5.80;2.33;;;9.90;99.90;;;;;;5056001;28;20130;-69
2022/06/08 00:30:08;;;;;;;3.72;2.13;;;9.90;99.90;;;;;;5038660;28;20045;-69
2022/06/08 00:32:34;;;;;;;4.78;2.63;;;9.90;99.90;;;;;;5033091;28;20044;-69
2022/06/08 00:35:01;;;;;;;6.90;2.47;;;9.90;99.90;;;;;;5037964;28;20120;-69
2022/06/08 00:37:28;;;;;;;6.85;2.60;;;9.90;99.90;;;;;;5038537;28;20457;-69
2022/06/08 00:39:53;;;;;;;6.15;2.53;;;9.90;99.90;;;;;;5055532;28;20084;-68
2022/06/08 00:42:19;;;;;;;7.90;2.65;;;9.80;99.90;;;;;;5038099;28;20081;-68
2022/06/08 00:45:23;;;;;;;5.30;2.65;;;9.80;99.90;;;;;;5037447;28;20103;-68
2022/06/08 00:47:54;;;;;;;6.50;2.25;;;9.80;99.90;;;;;;4972758;28;20054;-69
2022/06/08 00:50:28;;;;;;;7.57;2.58;;;9.70;99.90;;;;;;5027802;28;20125;-68
2022/06/08 00:52:55;;;;;;;7.35;3.10;;;9.70;99.90;;;;;;5051341;28;20397;-69
2022/06/08 00:55:25;;;;;;;7.13;2.85;;;9.70;99.90;;;;;;5057719;28;20052;-68
2022/06/08 00:57:55;;;;;;;6.35;2.85;;;9.70;99.90;;;;;;5057420;28;20490;-69
2022/06/08 01:00:28;;;;;;;5.05;2.80;;;9.70;99.90;;;;;;5057230;28;20110;-69
2022/06/08 01:02:54;;;;;;;4.82;2.70;;;9.70;99.90;;;;;;5057785;28;20049;-69
2022/06/08 01:05:19;;;;;;;4.55;2.53;;;9.70;99.90;;;;;;5090233;28;20127;-69
2022/06/08 01:07:46;;;;;;;6.28;2.83;;;9.60;99.90;;;;;;5077553;28;20131;-69
2022/06/08 01:10:18;;;;;;;6.35;3.40;;;9.60;99.90;;;;;;5077511;28;20043;-69
2022/06/08 01:12:44;;;;;;;10.35;2.88;;;9.60;99.90;;;;;;5077243;28;20052;-69
2022/06/08 01:15:17;;;;;;;6.20;3.05;;;9.70;99.90;;;;;;5077424;28;20353;-69
2022/06/08 01:17:43;;;;;;;5.05;2.42;;;9.80;99.90;;;;;;5060322;28;20141;-69
2022/06/08 01:20:10;;;;;;;11.40;3.60;;;9.60;99.90;;;;;;5075955;28;20044;-69
2022/06/08 01:22:36;;;;;;;8.43;3.20;;;9.60;99.90;;;;;;5057680;28;20059;-69
2022/06/08 01:25:04;;;;;;;5.50;2.80;;;9.60;99.90;;;;;;5074019;28;20396;-69
2022/06/08 01:27:35;;;;;;;5.90;3.05;;;9.60;99.90;;;;;;5057615;28;20109;-69
2022/06/08 01:30:21;;;;;;;7.25;2.28;;;9.60;99.90;;;;;;5057256;28;20530;-69
2022/06/08 01:32:56;;;;;;;7.70;2.80;;;9.60;99.90;;;;;;5057419;28;20041;-69
2022/06/08 01:35:56;;;;;;;7.38;3.38;;;9.60;99.90;;;;;;5074460;28;20094;-69
2022/06/08 01:38:31;;;;;;;4.65;3.17;;;9.60;99.90;;;;;;5057493;28;20113;-69
2022/06/08 01:41:00;;;;;;;4.57;2.90;;;9.60;99.90;;;;;;5057478;28;20049;-69
2022/06/08 01:43:57;;;;;;;7.07;2.45;;;9.60;99.90;;;;;;5057264;28;20059;-68
2022/06/08 01:46:26;;;;;;;4.32;2.33;;;9.50;99.90;;;;;;5059296;28;20045;-69
2022/06/08 01:49:16;;;;;;;6.35;2.90;;;9.60;99.90;;;;;;5091835;28;20115;-69
2022/06/08 01:52:00;;;;;;;5.07;2.92;;;9.50;99.90;;;;;;5073191;28;20414;-69
2022/06/08 01:54:53;;;;;;;7.35;3.00;;;9.50;99.90;;;;;;5057221;28;20091;-69
2022/06/08 01:57:36;;;;;;;5.25;2.90;;;9.40;99.90;;;;;;5061376;28;20381;-69
2022/06/08 02:00:08;;;;;;;5.50;2.50;;;9.40;99.90;;;;;;5061154;28;20141;-69
2022/06/08 02:03:10;;;;;;;8.98;3.22;;;9.50;99.90;;;;;;5060908;28;20052;-69
2022/06/08 02:05:51;;;;;;;8.07;3.60;;;9.50;99.90;;;;;;5051735;28;20049;-69
2022/06/08 02:08:38;;;;;;;8.75;2.50;;;9.50;99.90;;;;;;5040591;28;20056;-69
2022/06/08 02:11:17;;;;;;;4.53;3.10;;;9.50;99.90;;;;;;5058244;28;20462;-69
2022/06/08 02:13:53;;;;;;;8.48;2.92;;;9.60;99.90;;;;;;5040658;28;20055;-69
2022/06/08 02:16:27;;;;;;;6.55;3.45;;;9.50;99.90;;;;;;5057475;28;20099;-69
2022/06/08 02:19:00;;;;;;;5.68;3.03;;;9.50;99.90;;;;;;5058414;28;20045;-69
2022/06/08 02:21:42;;;;;;;8.25;2.88;;;9.50;99.90;;;;;;5058314;28;20098;-69
2022/06/08 02:24:36;;;;;;;6.90;2.80;;;9.50;99.90;;;;;;5078042;28;20041;-69
2022/06/08 02:27:09;;;;;;;10.32;4.40;;;9.50;99.90;;;;;;5051739;28;20415;-69
2022/06/08 02:29:45;;;;;;;7.37;3.30;;;9.50;99.90;;;;;;5060587;28;20048;-69
2022/06/08 02:35:06;;;;;;;5.72;3.40;;;9.60;99.90;;;;;;5058066;28;20472;-69
2022/06/08 02:37:33;;;;;;;11.73;4.03;;;9.50;99.90;;;;;;5058041;28;20045;-69
2022/06/08 02:40:23;;;;;;;10.25;3.83;;;9.60;99.90;;;;;;5057883;28;20033;-69
2022/06/08 02:42:53;;;;;;;8.63;4.10;;;9.60;99.90;;;;;;5040673;28;20053;-69
2022/06/08 02:45:27;;;;;;;7.13;3.35;;;9.70;99.90;;;;;;5040826;28;20053;-69
2022/06/08 02:47:56;;;;;;;9.50;3.97;;;9.60;99.90;;;;;;5057709;28;20041;-69
2022/06/08 02:50:25;;;;;;;7.22;4.07;;;9.60;99.90;;;;;;5040655;28;20450;-70
2022/06/08 02:52:54;;;;;;;11.48;3.97;;;9.70;99.90;;;;;;5052524;28;20472;-69
2022/06/08 02:55:25;;;;;;;9.40;4.30;;;9.60;99.90;;;;;;5059999;28;20108;-69
2022/06/08 02:57:53;;;;;;;8.52;4.03;;;9.60;99.90;;;;;;5077569;28;20044;-68
2022/06/08 03:00:30;;;;;;;7.43;3.65;;;9.60;99.90;;;;;;5077437;28;20044;-69
2022/06/08 03:03:31;;;;;;;7.93;4.15;;;9.60;99.90;;;;;;5059797;28;20053;-69
2022/06/08 03:06:11;;;;;;;6.13;3.10;;;9.60;99.90;;;;;;5062021;28;20113;-69
2022/06/08 03:08:47;;;;;;;8.95;3.92;;;9.60;99.90;;;;;;5059299;28;20052;-69
2022/06/08 03:11:14;;;;;;;9.70;4.05;;;9.50;99.90;;;;;;5077366;28;20033;-69
2022/06/08 03:13:45;;;;;;;8.02;4.55;;;9.50;99.90;;;;;;5059450;28;20044;-68
2022/06/08 03:16:28;;;;;;;10.80;4.60;;;9.50;99.90;;;;;;5076656;28;20551;-69
2022/06/08 03:18:54;;;;;;;10.07;3.50;;;9.60;99.90;;;;;;5059580;28;20339;-69
2022/06/08 03:21:20;;;;;;;6.50;4.10;;;9.60;99.90;;;;;;5059088;28;20064;-69
2022/06/08 03:23:48;;;;;;;8.25;4.55;;;9.60;99.90;;;;;;5075959;28;20045;-69
2022/06/08 03:26:14;;;;;;;9.63;4.20;;;9.60;99.90;;;;;;5076807;28;20044;-69
2022/06/08 03:28:39;;;;;;;8.52;4.00;;;9.60;99.90;;;;;;5076752;28;20045;-69
2022/06/08 03:31:05;;;;;;;7.13;4.15;;;9.60;99.90;;;;;;5076607;28;20045;-69
2022/06/08 03:33:30;;;;;;;11.38;5.03;;;9.60;99.90;;;;;;5076815;28;20040;-69
2022/06/08 03:35:56;;;;;;;9.43;3.92;;;9.60;99.90;;;;;;5078608;28;20384;-69
2022/06/08 03:38:21;;;;;;;9.30;4.68;;;9.60;99.90;;;;;;5079449;28;20536;-69
2022/06/08 03:40:47;;;;;;;6.53;3.85;;;9.70;99.90;;;;;;5096714;28;20040;-69
2022/06/08 03:43:13;;;;;;;10.50;5.07;;;9.60;99.90;;;;;;5096661;28;20107;-69
2022/06/08 03:45:44;;;;;;;11.43;3.80;;;9.70;99.90;;;;;;5079266;28;20047;-69
2022/06/08 03:48:11;;;;;;;7.60;3.85;;;9.70;99.90;;;;;;5078901;28;20051;-69
2022/06/08 03:50:41;;;;;;;7.25;3.88;;;9.70;99.90;;;;;;5074321;28;20049;-69
2022/06/08 03:53:12;;;;;;;8.07;4.40;;;9.80;99.90;;;;;;5075716;28;20052;-69
2022/06/08 03:55:38;;;;;;;13.55;5.22;;;9.70;99.90;;;;;;5059007;28;20048;-69
2022/06/08 03:58:08;;;;;;;8.75;5.15;;;9.90;99.90;;;;;;5058874;28;20368;-69
2022/06/08 04:00:34;;;;;;;12.23;6.35;;;9.90;99.90;;;;;;5055992;28;20512;-68
2022/06/08 04:03:01;;;;;;;12.27;5.40;;;10.00;99.90;;;;;;5076377;28;20364;-68
2022/06/08 04:05:28;;;;;;;8.75;4.68;;;10.00;99.90;;;;;;5075690;28;20043;-68
2022/06/08 04:07:53;;;;;;;10.68;5.05;;;10.10;99.90;;;;;;5075571;28;20043;-68
2022/06/08 04:10:19;;;;;;;11.77;5.00;;;10.20;99.90;;;;;;5075607;28;20036;-68
2022/06/08 04:12:45;;;;;;;9.35;5.03;;;10.20;99.90;;;;;;5075684;28;20059;-69
2022/06/08 04:15:11;;;;;;;9.35;5.05;;;10.30;99.90;;;;;;5058441;28;20044;-69
2022/06/08 04:17:57;;;;;;;9.23;4.60;;;10.40;99.90;;;;;;5057629;28;20511;-69
2022/06/08 04:20:23;;;;;;;12.23;5.57;;;10.50;99.90;;;;;;5075431;28;20045;-69
2022/06/08 04:22:48;;;;;;;11.68;6.03;;;10.60;99.90;;;;;;5075569;28;20036;-68
2022/06/08 04:25:14;;;;;;;9.35;5.47;;;10.70;99.90;;;;;;5075403;28;20414;-69
2022/06/08 04:27:40;;;;;;;9.32;4.72;;;10.90;99.90;;;;;;5075541;28;20178;-69
2022/06/08 04:30:06;;;;;;;15.02;5.72;;;11.00;99.90;;;;;;5075777;28;20356;-69
2022/06/08 04:32:32;;;;;;;13.52;6.25;;;11.20;99.90;;;;;;5058064;28;20041;-68
2022/06/08 04:34:57;;;;;;;12.70;6.47;;;11.30;99.90;;;;;;5057901;28;20041;-69
2022/06/08 04:37:23;;;;;;;13.57;6.50;;;11.60;99.90;;;;;;5062722;28;20074;-69
2022/06/08 04:39:48;;;;;;;17.30;7.28;;;11.90;99.90;;;;;;5077393;28;20036;-69
2022/06/08 04:42:14;;;;;;;10.38;6.32;;;12.20;99.90;;;;;;5074010;28;20114;-68
2022/06/08 04:44:40;;;;;;;14.55;6.55;;;12.40;99.90;;;;;;5057061;28;20520;-68
2022/06/08 04:47:07;;;;;;;12.25;7.20;;;12.50;99.90;;;;;;5057546;28;20055;-68
2022/06/08 04:49:35;;;;;;;9.25;4.78;;;12.70;99.90;;;;;;5057429;28;20178;-67
2022/06/08 04:52:01;;;;;;;10.77;6.25;;;12.70;99.90;;;;;;5056921;28;20061;-68
2022/06/08 04:54:26;;;;;;;12.15;6.20;;;12.70;99.90;;;;;;5074326;28;20364;-68
2022/06/08 04:56:53;;;;;;;13.50;5.43;;;12.80;99.90;;;;;;5057172;28;20178;-67
2022/06/08 04:59:19;;;;;;;9.55;5.72;;;12.80;99.90;;;;;;5068451;28;20142;-67
2022/06/08 05:01:44;;;;;;;16.02;6.30;;;12.80;99.90;;;;;;5067982;28;20429;-67
2022/06/08 05:04:10;;;;;;;16.75;7.45;;;12.80;99.90;;;;;;5082915;28;20049;-67
2022/06/08 05:06:36;;;;;;;17.27;7.20;;;12.90;99.90;;;;;;5093498;28;20044;-67
2022/06/08 05:09:02;;;;;;;15.32;6.78;;;12.90;99.90;;;;;;5076972;28;20126;-68
2022/06/08 05:11:27;;;;;;;12.73;6.15;;;12.90;99.90;;;;;;5094699;28;20071;-68
2022/06/08 05:13:54;;;;;;;13.82;7.40;;;13.00;99.90;;;;;;5077341;28;20492;-68
2022/06/08 05:16:19;;;;;;;14.15;6.20;;;13.00;99.90;;;;;;5077000;28;20120;-69
2022/06/08 05:18:49;;;;;;;11.93;6.30;;;13.10;99.90;;;;;;5095539;28;20048;-70
2022/06/08 05:21:16;;;;;;;10.48;6.60;;;13.20;99.90;;;;;;5093678;28;20129;-70
2022/06/08 05:23:43;;;;;;;13.45;7.43;;;13.20;99.90;;;;;;5090688;28;20109;-69
2022/06/08 05:26:09;;;;;;;10.73;6.70;;;13.30;99.90;;;;;;5080728;28;20051;-70
2022/06/08 05:28:34;;;;;;;10.52;6.35;;;13.30;99.90;;;;;;5062952;28;20041;-69
2022/06/08 05:31:00;;;;;;;11.55;7.40;;;13.30;99.90;;;;;;5085720;28;20108;-69
2022/06/08 05:33:27;;;;;;;13.27;7.07;;;13.30;99.90;;;;;;5063323;28;20362;-70
2022/06/08 05:35:54;;;;;;;22.52;8.10;;;13.30;99.90;;;;;;5063509;28;20349;-70
2022/06/08 05:38:20;;;;;;;23.65;7.10;;;13.40;99.90;;;;;;5062883;28;20049;-70
2022/06/08 05:40:45;;;;;;;12.10;7.20;;;13.50;99.90;;;;;;5056945;28;20052;-70
2022/06/08 05:43:13;;;;;;;13.93;6.85;;;13.60;99.90;;;;;;5069620;28;20041;-69
2022/06/08 05:45:40;;;;;;;11.50;7.57;;;13.60;99.90;;;;;;5088017;28;20045;-68
2022/06/08 05:48:07;;;;;;;10.07;6.32;;;13.60;99.90;;;;;;5062445;28;20109;-69
2022/06/08 05:50:34;;;;;;;13.18;6.68;;;13.80;99.90;;;;;;5057241;28;20044;-68
2022/06/08 05:53:00;;;;;;;13.75;6.90;;;13.90;99.90;;;;;;5074090;28;20067;-68
2022/06/08 05:55:27;;;;;;;12.10;7.25;;;14.00;99.90;;;;;;5066766;28;20048;-69
2022/06/08 05:57:53;;;;;;;11.65;6.88;;;14.20;99.90;;;;;;5078291;28;20109;-69
2022/06/08 06:00:28;;;;;;;14.07;6.88;;;14.40;99.90;;;;;;5070274;28;20080;-70
2022/06/08 06:02:54;;;;;;;12.35;6.55;;;14.60;99.90;;;;;;5069496;28;20373;-69
2022/06/08 06:05:24;;;;;;;14.23;6.93;;;14.90;99.90;;;;;;5062246;28;20056;-69
2022/06/08 06:07:50;;;;;;;14.32;7.55;;;15.20;99.90;;;;;;5076228;28;20049;-69
2022/06/08 06:10:17;;;;;;;11.75;6.40;;;15.40;99.90;;;;;;5074327;28;20040;-69
2022/06/08 06:12:42;;;;;;;12.20;6.68;;;15.30;99.90;;;;;;5074281;28;20124;-69
2022/06/08 06:15:10;;;;;;;12.05;6.95;;;15.40;99.90;;;;;;5062267;28;20437;-70
2022/06/08 06:17:36;;;;;;;11.65;6.88;;;15.50;99.90;;;;;;5074000;28;20056;-69
2022/06/08 06:20:02;;;;;;;9.73;6.18;;;15.50;99.90;;;;;;5072574;28;20044;-70
2022/06/08 06:22:32;;;;;;;13.40;6.43;;;15.60;99.90;;;;;;5063952;28;20072;-70
2022/06/08 06:24:58;;;;;;;11.98;6.43;;;15.70;99.90;;;;;;5067968;28;20044;-70
2022/06/08 06:27:24;;;;;;;11.65;6.85;;;15.90;99.90;;;;;;5063573;28;20044;-70
2022/06/08 06:29:51;;;;;;;11.20;7.05;;;16.20;99.90;;;;;;5073864;28;20063;-69
2022/06/08 06:32:26;;;;;;;16.50;7.40;;;16.50;99.90;;;;;;5056654;28;20073;-69
2022/06/08 06:34:52;;;;;;;13.27;6.85;;;16.80;99.90;;;;;;5062699;28;20047;-72
2022/06/08 06:37:18;;;;;;;13.32;7.45;;;17.20;99.90;;;;;;5073976;28;20044;-70
2022/06/08 06:39:44;;;;;;;9.77;5.88;;;17.90;99.90;;;;;;5056441;28;20044;-70
2022/06/08 06:42:21;;;;;;;12.98;6.60;;;18.90;99.90;;;;;;5074217;28;20056;-70
2022/06/08 06:44:47;;;;;;;10.52;6.50;;;19.70;99.90;;;;;;5068718;28;20075;-68
2022/06/08 06:47:14;;;;;;;8.93;6.18;;;20.10;99.90;;;;;;5076888;28;20036;-68
2022/06/08 06:49:40;;;;;;;11.30;6.70;;;20.20;99.90;;;;;;5060052;28;20083;-70
2022/06/08 06:52:08;;;;;;;13.57;5.57;;;20.50;99.90;;;;;;5067323;28;20064;-68
2022/06/08 06:54:34;;;;;;;9.93;5.28;;;20.80;99.90;;;;;;5047804;28;20057;-68
2022/06/08 06:57:00;;;;;;;9.02;5.45;;;21.60;99.90;;;;;;5074323;28;20053;-67
2022/06/08 06:59:26;;;;;;;6.72;4.68;;;22.20;99.90;;;;;;5069124;28;20048;-67
2022/06/08 07:01:51;;;;;;;10.07;5.70;;;22.00;99.90;;;;;;5059385;28;20051;-68
2022/06/08 07:04:18;;;;;;;9.43;4.65;;;21.80;99.90;;;;;;5046961;28;20044;-68
2022/06/08 07:06:44;;;;;;;8.63;4.57;;;21.40;99.90;;;;;;5039008;28;20124;-68
2022/06/08 07:09:09;;;;;;;7.45;4.28;;;21.00;99.90;;;;;;5063576;28;20131;-68
2022/06/08 07:11:37;;;;;;;7.55;4.97;;;20.90;99.90;;;;;;5045148;28;20465;-68
2022/06/08 07:14:05;;;;;;;8.88;4.45;;;20.50;99.90;;;;;;5066471;28;20412;-68
2022/06/08 07:16:32;;;;;;;6.32;3.90;;;20.50;99.90;;;;;;5039164;28;20063;-67
2022/06/08 07:18:58;;;;;;;8.40;5.05;;;20.50;99.90;;;;;;5043326;28;20473;-68
2022/06/08 07:21:24;;;;;;;7.43;4.40;;;20.70;99.90;;;;;;5057040;28;20128;-68
2022/06/08 07:23:50;;;;;;;9.05;4.80;;;21.20;99.90;;;;;;5048982;28;20092;-68
2022/06/08 07:26:17;;;;;;;8.05;3.83;;;21.70;99.90;;;;;;5058171;28;20063;-67
2022/06/08 07:28:43;;;;;;;7.03;3.85;;;22.60;99.90;;;;;;5070055;28;20064;-68
2022/06/08 07:31:12;;;;;;;6.10;3.15;;;23.20;99.90;;;;;;5049994;28;20080;-68
2022/06/08 07:33:39;;;;;;;5.72;2.78;;;23.90;99.90;;;;;;5049345;28;20052;-68
2022/06/08 07:36:05;;;;;;;4.97;2.92;;;24.50;99.90;;;;;;5068238;28;20052;-68
2022/06/08 07:38:31;;;;;;;8.68;2.97;;;24.70;99.90;;;;;;5038686;28;20044;-68
2022/06/08 07:40:57;;;;;;;3.92;2.38;;;24.90;99.90;;;;;;5048854;28;20040;-68
2022/06/08 07:43:24;;;;;;;4.82;2.63;;;24.90;99.90;;;;;;5053462;28;20411;-68
2022/06/08 07:45:50;;;;;;;4.90;2.58;;;24.40;99.90;;;;;;5056022;28;20147;-67
2022/06/08 07:51:00;;;;;;;5.40;2.65;;;23.60;99.90;;;;;;5038392;28;20479;-69
2022/06/08 07:53:26;;;;;;;4.13;2.00;;;22.90;99.90;;;;;;5060907;28;20052;-67
2022/06/08 07:55:52;;;;;;;4.93;2.45;;;22.40;99.90;;;;;;5067072;28;20453;-67
2022/06/08 07:58:17;;;;;;;4.78;2.22;;;22.30;99.90;;;;;;5090663;28;20402;-68
2022/06/08 08:00:46;;;;;;;4.18;2.08;;;22.10;99.90;;;;;;5066089;28;20048;-67
2022/06/08 08:03:14;;;;;;;3.85;2.22;;;21.90;99.90;;;;;;5067263;28;20101;-68
2022/06/08 08:05:40;;;;;;;4.10;2.03;;;21.80;99.90;;;;;;5058236;28;20281;-68
2022/06/08 08:08:06;;;;;;;4.28;2.17;;;21.90;99.90;;;;;;5065341;28;20060;-67
2022/06/08 08:10:32;;;;;;;3.88;2.15;;;22.00;99.90;;;;;;5071398;28;20055;-68
2022/06/08 08:12:57;;;;;;;4.65;2.17;;;22.10;99.90;;;;;;5066323;28;20108;-68
2022/06/08 08:15:25;;;;;;;5.18;2.00;;;22.40;99.90;;;;;;5092570;28;20448;-68
2022/06/08 08:17:50;;;;;;;5.68;2.63;;;22.80;99.90;;;;;;5068888;28;20040;-68
2022/06/08 08:20:18;;;;;;;7.38;2.10;;;23.40;99.90;;;;;;5075473;28;20086;-68
2022/06/08 08:22:46;;;;;;;4.05;1.98;;;24.10;99.90;;;;;;5075104;28;20048;-69
2022/06/08 08:25:15;;;;;;;3.10;1.90;;;24.70;99.90;;;;;;5083930;28;20039;-68
2022/06/08 08:27:42;;;;;;;3.85;1.80;;;24.80;99.90;;;;;;5096145;28;20475;-69
2022/06/08 08:30:09;;;;;;;3.67;1.50;;;25.20;99.90;;;;;;5096366;28;20076;-69
2022/06/08 08:32:36;;;;;;;4.57;2.20;;;25.30;99.90;;;;;;5102034;28;20039;-70
2022/06/08 08:35:02;;;;;;;4.15;1.58;;;25.30;99.90;;;;;;5115615;28;20096;-69
2022/06/08 08:37:28;;;;;;;2.75;1.35;;;25.40;99.90;;;;;;5097832;28;20062;-70
2022/06/08 08:39:54;;;;;;;2.97;1.33;;;25.80;99.90;;;;;;5098898;28;20463;-70
2022/06/08 08:42:20;;;;;;;2.40;1.20;;;26.50;99.90;;;;;;5116194;28;20079;-70
2022/06/08 08:44:53;;;;;;;2.60;1.15;;;26.70;99.90;;;;;;5103358;28;20044;-70
2022/06/08 08:47:48;;;;;;;1.95;1.05;;;27.10;99.90;;;;;;5077696;28;20063;-70
2022/06/08 08:50:30;;;;;;;2.10;1.00;;;27.20;99.90;;;;;;5078321;28;20071;-70
2022/06/08 08:53:10;;;;;;;4.18;1.30;;;26.40;99.90;;;;;;5062609;28;20056;-70
2022/06/08 08:55:48;;;;;;;3.08;1.02;;;25.60;99.90;;;;;;5037185;28;20136;-70
2022/06/08 08:58:29;;;;;;;1.65;0.95;;;24.80;99.90;;;;;;5054905;28;20048;-70
2022/06/08 09:01:00;;;;;;;3.30;1.08;;;24.90;99.90;;;;;;5037436;28;20098;-70
2022/06/08 09:03:34;;;;;;;1.50;0.77;;;25.60;99.90;;;;;;5055165;28;20079;-69
2022/06/08 09:06:21;;;;;;;2.38;1.13;;;26.10;99.90;;;;;;5037366;28;20049;-70
2022/06/08 09:08:49;;;;;;;2.70;0.95;;;26.90;99.90;;;;;;5037323;28;20037;-69
2022/06/08 09:11:22;;;;;;;1.30;0.70;;;26.90;99.90;;;;;;5037414;28;20088;-70
2022/06/08 09:13:57;;;;;;;1.58;0.95;;;27.00;99.90;;;;;;5050931;28;20052;-70
2022/06/08 09:16:37;;;;;;;2.23;0.87;;;27.00;99.90;;;;;;5037259;28;20045;-70
2022/06/08 09:19:21;;;;;;;1.88;0.85;;;26.90;99.90;;;;;;5037043;28;20045;-69
2022/06/08 09:22:14;;;;;;;3.22;1.23;;;26.70;99.90;;;;;;5037491;28;20045;-70
2022/06/08 09:24:47;;;;;;;;;;;26.80;99.90;;;;;;5050434;28;20144;-70
2022/06/08 09:27:22;;;;;;;;;;;26.70;99.90;;;;;;5055209;28;19931;-70
2022/06/08 09:29:53;;;;;;;1.67;0.95;;;26.60;99.90;;;;;;5036927;28;19967;-70
2022/06/08 09:32:32;;;;;;;2.25;0.98;;;26.70;99.90;;;;;;5054725;28;20051;-70
2022/06/08 09:35:02;;;;;;;2.35;1.13;;;26.30;99.70;;;;;;5037311;28;20048;-70
2022/06/08 09:37:28;;;;;;;3.35;1.25;;;25.70;99.90;;;;;;5064019;28;20056;-70
2022/06/08 09:39:58;;;;;;;2.83;1.00;;;25.10;99.90;;;;;;5075085;28;20113;-70
2022/06/08 09:42:42;;;;;;;2.13;1.13;;;24.90;99.90;;;;;;5057388;28;20097;-70
2022/06/08 09:45:29;;;;;;;2.60;1.45;;;24.40;99.90;;;;;;5056997;28;20051;-69
2022/06/08 09:51:59;;;;;;;4.13;1.40;;;24.00;99.90;;;;;;5034899;28;20048;-70
2022/06/08 09:54:46;;;;;;;2.45;1.25;;;24.00;99.90;;;;;;5057230;28;20060;-70
2022/06/08 09:57:21;;;;;;;3.13;1.63;;;24.30;99.90;;;;;;5056701;28;20075;-70
2022/06/08 09:59:55;;;;;;;4.07;1.40;;;24.20;99.90;;;;;;5074465;28;20056;-70
2022/06/08 10:02:45;;;;;;;1.92;1.20;;;24.10;99.90;;;;;;5074578;28;20044;-69
2022/06/08 10:05:33;;;;;;;4.25;1.75;;;23.90;99.90;;;;;;5057526;28;20075;-70
2022/06/08 10:08:12;;;;;;;3.10;1.70;;;23.70;99.90;;;;;;5092080;28;20094;-69
2022/06/08 10:10:52;;;;;;;6.35;1.98;;;23.60;99.90;;;;;;5077016;28;20047;-70
2022/06/08 10:13:30;;;;;;;5.32;1.98;;;23.90;99.90;;;;;;5094530;28;20040;-69
2022/06/08 10:16:10;;;;;;;3.22;1.50;;;23.80;99.90;;;;;;5060850;28;20452;-69
2022/06/08 10:18:43;;;;;;;5.03;1.77;;;23.80;99.90;;;;;;5081200;28;20356;-70
2022/06/08 10:21:22;;;;;;;3.42;1.80;;;23.80;99.90;;;;;;5063724;28;20050;-70
2022/06/08 10:24:19;;;;;;;2.83;1.65;;;23.90;99.90;;;;;;5080186;28;20044;-69
2022/06/08 10:26:44;;;;;;;5.70;2.20;;;24.00;99.90;;;;;;5080575;28;20047;-71
2022/06/08 10:29:19;;;;;;;4.38;2.10;;;24.20;99.90;;;;;;5098199;28;20097;-70
2022/06/08 10:31:54;;;;;;;3.50;1.90;;;24.20;99.90;;;;;;5098330;28;20043;-70
2022/06/08 10:34:33;;;;;;;3.35;1.80;;;24.20;99.90;;;;;;5079879;28;20043;-70
2022/06/08 10:37:10;;;;;;;3.70;1.63;;;24.10;99.90;;;;;;5084235;28;20365;-69
2022/06/08 10:39:36;;;;;;;5.30;2.00;;;24.10;99.90;;;;;;5077830;28;20049;-70
2022/06/08 10:42:40;;;;;;;3.35;1.60;;;24.00;99.90;;;;;;5077752;28;20395;-70
2022/06/08 10:45:26;;;;;;;10.10;2.28;;;23.80;99.90;;;;;;5059840;28;20044;-69
2022/06/08 10:48:01;;;;;;;5.72;1.95;;;23.70;99.90;;;;;;5059919;28;20137;-69
2022/06/08 10:50:34;;;;;;;3.35;1.55;;;23.70;99.90;;;;;;5079913;28;20421;-70
2022/06/08 10:56:34;;;;;;;2.92;1.65;;;23.90;99.90;;;;;;5051202;28;20060;-70
2022/06/08 10:59:03;;;;;;;4.13;1.70;;;24.00;99.90;;;;;;5070960;28;20052;-70
2022/06/08 11:01:53;;;;;;;2.17;1.13;;;24.30;99.90;;;;;;5076894;28;20052;-70
2022/06/08 11:04:29;;;;;;;3.67;1.40;;;24.40;99.90;;;;;;5059469;28;20052;-71
2022/06/08 11:07:10;;;;;;;2.85;1.20;;;24.10;99.90;;;;;;5055354;28;20064;-70
2022/06/08 11:09:36;;;;;;;1.95;1.20;;;23.70;99.90;;;;;;5039699;28;20045;-69
2022/06/08 11:12:16;;;;;;;2.40;1.00;;;23.50;99.90;;;;;;5039597;28;20045;-69
2022/06/08 11:14:48;;;;;;;2.80;1.30;;;23.30;99.90;;;;;;5039096;28;20064;-69
2022/06/08 11:17:31;;;;;;;3.25;1.30;;;23.10;99.90;;;;;;5039213;28;20128;-69
2022/06/08 11:20:13;;;;;;;3.50;1.27;;;23.00;99.90;;;;;;5056974;28;20049;-69
2022/06/08 11:23:03;;;;;;;3.33;1.25;;;23.00;99.90;;;;;;5076196;28;20460;-69
2022/06/08 11:25:44;;;;;;;2.47;1.48;;;23.00;99.90;;;;;;5059409;28;20119;-69
2022/06/08 11:28:32;;;;;;;2.60;0.90;;;23.20;99.90;;;;;;5057718;28;20061;-69
2022/06/08 11:31:05;;;;;;;3.58;1.55;;;23.30;99.90;;;;;;5076734;28;20076;-69
2022/06/08 11:34:21;;;;;;;5.78;2.17;;;23.30;99.90;;;;;;5058943;28;20052;-68
2022/06/08 11:37:20;;;;;;;2.67;1.17;;;23.40;99.90;;;;;;4966756;28;20047;-68
2022/06/08 11:39:55;;;;;;;4.18;1.63;;;23.50;99.90;;;;;;4959709;28;20430;-69
2022/06/08 11:42:27;;;;;;;3.75;1.50;;;23.40;99.90;;;;;;5043651;28;20457;-68
2022/06/08 11:45:00;;;;;;;3.33;1.42;;;23.50;99.90;;;;;;5055498;28;20612;-69
2022/06/08 11:47:43;;;;;;;2.72;1.40;;;23.50;99.90;;;;;;5056202;28;20041;-68
2022/06/08 11:50:20;;;;;;;3.38;1.60;;;23.40;99.90;;;;;;5038578;28;20073;-69
2022/06/08 11:52:55;;;;;;;6.70;1.40;;;23.10;99.90;;;;;;5068380;28;20053;-68
2022/06/08 11:55:23;;;;;;;3.83;1.92;;;23.10;99.90;;;;;;5058414;28;20075;-69
2022/06/08 11:57:54;;;;;;;4.22;1.55;;;23.00;99.90;;;;;;5058790;28;20049;-68
2022/06/08 12:00:32;;;;;;;3.72;1.73;;;22.90;99.90;;;;;;5075761;28;20048;-69
2022/06/08 12:03:02;;;;;;;3.58;1.75;;;22.90;99.90;;;;;;5075640;28;20503;-69
2022/06/08 12:05:31;;;;;;;4.10;1.92;;;23.00;99.90;;;;;;5062544;28;20040;-69
2022/06/08 12:08:05;;;;;;;6.35;2.25;;;23.00;99.90;;;;;;5078328;28;20371;-68
2022/06/08 12:10:33;;;;;;;2.72;1.40;;;23.10;99.90;;;;;;5096058;28;20097;-69
2022/06/08 12:13:00;;;;;;;4.53;1.58;;;23.10;99.90;;;;;;5078270;28;20075;-68
2022/06/08 12:16:03;;;;;;;3.75;1.77;;;23.00;99.90;;;;;;5077898;28;20044;-68
2022/06/08 12:18:42;;;;;;;3.05;1.90;;;22.80;99.90;;;;;;5026831;28;20089;-68
2022/06/08 12:21:21;;;;;;;2.40;1.60;;;22.50;99.90;;;;;;5067734;28;20056;-67
2022/06/08 12:24:19;;;;;;;4.95;2.15;;;22.40;99.90;;;;;;5040818;28;20053;-67
2022/06/08 12:26:51;;;;;;;3.05;1.30;;;22.20;99.90;;;;;;5058146;28;20056;-69
2022/06/08 12:29:32;;;;;;;2.78;0.90;;;21.70;99.90;;;;;;5057984;28;20124;-68
2022/06/08 12:32:06;;;;;;;15.77;1.98;;;21.30;99.90;;;;;;5057706;28;20075;-68
2022/06/08 12:34:59;;;;;;;2.20;0.90;;;21.00;99.90;;;;;;5057916;28;20044;-67
2022/06/08 12:37:28;;;;;;;8.13;2.00;;;20.80;99.90;;;;;;5057890;28;20048;-68
2022/06/08 12:40:16;;;;;;;7.88;1.50;;;20.60;99.90;;;;;;5057392;28;20049;-68
2022/06/08 12:42:58;;;;;;;3.35;1.30;;;20.30;99.90;;;;;;5057248;28;20052;-67
2022/06/08 12:45:30;;;;;;;2.58;1.27;;;20.10;99.90;;;;;;5075169;28;20052;-68
2022/06/08 12:47:56;;;;;;;5.30;1.50;;;19.90;99.90;;;;;;5074945;28;20037;-67
2022/06/08 12:50:25;;;;;;;2.80;1.10;;;19.70;99.90;;;;;;5060133;28;20052;-68
2022/06/08 12:52:52;;;;;;;3.22;0.93;;;19.70;99.90;;;;;;5040739;28;20109;-69
2022/06/08 12:55:24;;;;;;;4.55;1.25;;;19.80;99.90;;;;;;5074937;28;20487;-68
2022/06/08 12:57:50;;;;;;;4.93;1.30;;;19.70;99.90;;;;;;5074603;28;20468;-68
2022/06/08 13:00:20;;;;;;;3.75;1.00;;;19.60;99.90;;;;;;5056773;28;20408;-68
2022/06/08 13:02:46;;;;;;;5.70;1.13;;;19.50;99.90;;;;;;5075053;28;20041;-68
2022/06/08 13:05:25;;;;;;;3.22;1.10;;;19.30;99.90;;;;;;5063996;28;20363;-67
2022/06/08 13:07:54;;;;;;;3.65;1.20;;;19.20;99.90;;;;;;5095088;28;20057;-68
2022/06/08 13:10:24;;;;;;;1.70;0.90;;;19.10;99.90;;;;;;5077263;28;20055;-68
2022/06/08 13:12:55;;;;;;;4.63;0.98;;;19.00;99.90;;;;;;5077421;28;20048;-68
2022/06/08 13:15:28;;;;;;;3.00;1.30;;;19.00;99.90;;;;;;5077312;28;20105;-68
2022/06/08 13:17:55;;;;;;;6.80;1.23;;;18.90;99.90;;;;;;5095097;28;20078;-68
2022/06/08 13:20:27;;;;;;;3.53;1.23;;;18.80;99.90;;;;;;5084961;28;20040;-68
2022/06/08 13:22:54;;;;;;;4.25;1.05;;;18.70;99.90;;;;;;5074995;28;20048;-68
2022/06/08 13:25:21;;;;;;;6.57;1.85;;;18.70;99.90;;;;;;5057276;28;20049;-69